sensor_id;sensor_type;location;lat;lon;timestamp;temperature;humidity
152;DHT22;68;48.792;9.164;2023-10-31T00:00:37;13.50;86.80
152;DHT22;68;48.792;9.164;2023-10-31T00:03:03;13.50;86.70
152;DHT22;68;48.792;9.164;2023-10-31T00:05:30;13.50;86.80
152;DHT22;68;48.792;9.164;2023-10-31T00:07:57;13.50;86.40
152;DHT22;68;48.792;9.164;2023-10-31T00:10:25;13.50;86.50
152;DHT22;68;48.792;9.164;2023-10-31T00:12:52;13.50;86.80
152;DHT22;68;48.792;9.164;2023-10-31T00:15:19;13.50;87.10
152;DHT22;68;48.792;9.164;2023-10-31T00:17:46;13.50;86.70
152;DHT22;68;48.792;9.164;2023-10-31T00:20:13;13.50;87.00
152;DHT22;68;48.792;9.164;2023-10-31T00:22:39;13.50;87.00
152;DHT22;68;48.792;9.164;2023-10-31T00:25:07;13.50;86.70
152;DHT22;68;48.792;9.164;2023-10-31T00:27:35;13.50;86.20
152;DHT22;68;48.792;9.164;2023-10-31T00:30:01;13.60;86.50
152;DHT22;68;48.792;9.164;2023-10-31T00:32:28;13.60;87.00
152;DHT22;68;48.792;9.164;2023-10-31T00:34:55;13.50;87.80
152;DHT22;68;48.792;9.164;2023-10-31T00:37:22;13.50;87.10
152;DHT22;68;48.792;9.164;2023-10-31T00:39:49;13.50;86.60
152;DHT22;68;48.792;9.164;2023-10-31T00:42:15;13.50;87.10
152;DHT22;68;48.792;9.164;2023-10-31T00:44:43;13.50;86.10
152;DHT22;68;48.792;9.164;2023-10-31T00:47:10;13.40;86.00
152;DHT22;68;48.792;9.164;2023-10-31T00:49:37;13.50;85.90
152;DHT22;68;48.792;9.164;2023-10-31T00:52:04;13.50;85.90
152;DHT22;68;48.792;9.164;2023-10-31T00:54:31;13.60;86.10
152;DHT22;68;48.792;9.164;2023-10-31T00:56:57;13.60;86.90
152;DHT22;68;48.792;9.164;2023-10-31T00:59:24;13.50;87.50
152;DHT22;68;48.792;9.164;2023-10-31T01:01:52;13.50;87.70
152;DHT22;68;48.792;9.164;2023-10-31T01:04:19;13.40;88.30
152;DHT22;68;48.792;9.164;2023-10-31T01:06:46;13.30;88.30
152;DHT22;68;48.792;9.164;2023-10-31T01:09:13;13.30;88.00
152;DHT22;68;48.792;9.164;2023-10-31T01:11:39;13.30;88.20
152;DHT22;68;48.792;9.164;2023-10-31T01:14:06;13.20;88.40
152;DHT22;68;48.792;9.164;2023-10-31T01:16:33;13.10;89.10
152;DHT22;68;48.792;9.164;2023-10-31T01:19:01;13.00;89.40
152;DHT22;68;48.792;9.164;2023-10-31T01:21:29;13.00;89.40
152;DHT22;68;48.792;9.164;2023-10-31T01:23:56;12.80;90.60
152;DHT22;68;48.792;9.164;2023-10-31T01:26:22;12.70;90.30
152;DHT22;68;48.792;9.164;2023-10-31T01:28:49;12.50;90.40
152;DHT22;68;48.792;9.164;2023-10-31T01:31:16;12.50;89.80
152;DHT22;68;48.792;9.164;2023-10-31T01:33:43;12.50;89.60
152;DHT22;68;48.792;9.164;2023-10-31T01:36:12;12.60;90.10
152;DHT22;68;48.792;9.164;2023-10-31T01:38:40;12.60;90.80
152;DHT22;68;48.792;9.164;2023-10-31T01:41:07;12.60;91.20
152;DHT22;68;48.792;9.164;2023-10-31T01:43:34;12.60;91.40
152;DHT22;68;48.792;9.164;2023-10-31T01:46:01;12.60;91.70
152;DHT22;68;48.792;9.164;2023-10-31T01:48:30;12.60;91.70
152;DHT22;68;48.792;9.164;2023-10-31T01:50:58;12.60;91.70
152;DHT22;68;48.792;9.164;2023-10-31T01:53:30;12.60;91.80
152;DHT22;68;48.792;9.164;2023-10-31T01:55:58;12.50;91.90
152;DHT22;68;48.792;9.164;2023-10-31T01:58:29;12.50;91.80
152;DHT22;68;48.792;9.164;2023-10-31T02:00:59;12.50;91.90
152;DHT22;68;48.792;9.164;2023-10-31T02:03:30;12.60;91.90
152;DHT22;68;48.792;9.164;2023-10-31T02:05:58;12.50;92.10
152;DHT22;68;48.792;9.164;2023-10-31T02:08:27;12.50;91.90
152;DHT22;68;48.792;9.164;2023-10-31T02:10:53;12.50;92.00
152;DHT22;68;48.792;9.164;2023-10-31T02:13:20;12.50;91.90
152;DHT22;68;48.792;9.164;2023-10-31T02:15:47;12.50;91.90
152;DHT22;68;48.792;9.164;2023-10-31T02:18:17;12.50;92.00
152;DHT22;68;48.792;9.164;2023-10-31T02:20:44;12.50;91.80
152;DHT22;68;48.792;9.164;2023-10-31T02:23:15;12.50;91.80
152;DHT22;68;48.792;9.164;2023-10-31T02:25:42;12.50;91.80
152;DHT22;68;48.792;9.164;2023-10-31T02:28:08;12.50;92.20
152;DHT22;68;48.792;9.164;2023-10-31T02:30:35;12.30;92.40
152;DHT22;68;48.792;9.164;2023-10-31T02:33:02;12.30;91.90
152;DHT22;68;48.792;9.164;2023-10-31T02:35:32;12.30;92.00
152;DHT22;68;48.792;9.164;2023-10-31T02:37:58;12.30;92.00
152;DHT22;68;48.792;9.164;2023-10-31T02:40:27;12.30;91.90
152;DHT22;68;48.792;9.164;2023-10-31T02:42:53;12.30;91.90
152;DHT22;68;48.792;9.164;2023-10-31T02:45:20;12.30;91.90
152;DHT22;68;48.792;9.164;2023-10-31T02:47:49;12.20;92.00
152;DHT22;68;48.792;9.164;2023-10-31T02:50:15;12.30;91.90
152;DHT22;68;48.792;9.164;2023-10-31T02:52:42;12.30;91.90
152;DHT22;68;48.792;9.164;2023-10-31T02:55:09;12.30;91.80
152;DHT22;68;48.792;9.164;2023-10-31T02:57:37;12.30;91.90
152;DHT22;68;48.792;9.164;2023-10-31T03:00:05;12.30;91.90
152;DHT22;68;48.792;9.164;2023-10-31T03:02:32;12.30;91.80
152;DHT22;68;48.792;9.164;2023-10-31T03:04:58;12.30;92.00
152;DHT22;68;48.792;9.164;2023-10-31T03:07:25;12.20;91.90
152;DHT22;68;48.792;9.164;2023-10-31T03:09:55;12.20;92.10
152;DHT22;68;48.792;9.164;2023-10-31T03:12:22;12.20;92.20
152;DHT22;68;48.792;9.164;2023-10-31T03:14:51;12.10;92.50
152;DHT22;68;48.792;9.164;2023-10-31T03:17:17;12.10;92.10
152;DHT22;68;48.792;9.164;2023-10-31T03:19:44;12.10;91.90
152;DHT22;68;48.792;9.164;2023-10-31T03:22:11;12.10;91.70
152;DHT22;68;48.792;9.164;2023-10-31T03:24:39;12.10;91.80
152;DHT22;68;48.792;9.164;2023-10-31T03:27:06;12.10;91.80
152;DHT22;68;48.792;9.164;2023-10-31T03:29:32;12.10;91.90
152;DHT22;68;48.792;9.164;2023-10-31T03:32:01;12.10;91.90
152;DHT22;68;48.792;9.164;2023-10-31T03:34:27;12.00;92.00
152;DHT22;68;48.792;9.164;2023-10-31T03:36:54;12.00;92.10
152;DHT22;68;48.792;9.164;2023-10-31T03:39:21;12.00;91.90
152;DHT22;68;48.792;9.164;2023-10-31T03:41:48;12.00;91.60
152;DHT22;68;48.792;9.164;2023-10-31T03:44:14;12.00;91.70
152;DHT22;68;48.792;9.164;2023-10-31T03:46:43;12.00;91.90
152;DHT22;68;48.792;9.164;2023-10-31T03:49:11;12.00;91.70
152;DHT22;68;48.792;9.164;2023-10-31T03:51:37;12.00;91.70
152;DHT22;68;48.792;9.164;2023-10-31T03:54:06;12.00;91.70
152;DHT22;68;48.792;9.164;2023-10-31T03:56:38;12.00;91.90
152;DHT22;68;48.792;9.164;2023-10-31T03:59:05;12.00;91.80
152;DHT22;68;48.792;9.164;2023-10-31T04:01:32;12.00;91.70
152;DHT22;68;48.792;9.164;2023-10-31T04:03:59;12.00;91.50
152;DHT22;68;48.792;9.164;2023-10-31T04:06:27;12.00;91.60
152;DHT22;68;48.792;9.164;2023-10-31T04:08:53;12.00;91.50
152;DHT22;68;48.792;9.164;2023-10-31T04:11:21;12.00;91.40
152;DHT22;68;48.792;9.164;2023-10-31T04:13:47;12.00;91.30
152;DHT22;68;48.792;9.164;2023-10-31T04:16:14;12.00;91.30
152;DHT22;68;48.792;9.164;2023-10-31T04:18:41;12.00;91.30
152;DHT22;68;48.792;9.164;2023-10-31T04:21:07;12.00;91.30
152;DHT22;68;48.792;9.164;2023-10-31T04:23:35;12.00;91.40
152;DHT22;68;48.792;9.164;2023-10-31T04:26:03;12.00;91.40
152;DHT22;68;48.792;9.164;2023-10-31T04:28:29;12.00;91.30
152;DHT22;68;48.792;9.164;2023-10-31T04:30:56;12.00;91.20
152;DHT22;68;48.792;9.164;2023-10-31T04:33:23;12.00;91.30
152;DHT22;68;48.792;9.164;2023-10-31T04:35:49;11.90;91.70
152;DHT22;68;48.792;9.164;2023-10-31T04:38:16;11.90;91.50
152;DHT22;68;48.792;9.164;2023-10-31T04:40:44;11.90;91.40
152;DHT22;68;48.792;9.164;2023-10-31T04:43:11;11.90;91.30
152;DHT22;68;48.792;9.164;2023-10-31T04:45:38;11.80;91.20
152;DHT22;68;48.792;9.164;2023-10-31T04:48:05;11.80;91.00
152;DHT22;68;48.792;9.164;2023-10-31T04:50:31;11.80;90.90
152;DHT22;68;48.792;9.164;2023-10-31T04:52:58;11.80;91.20
152;DHT22;68;48.792;9.164;2023-10-31T04:55:26;11.80;91.10
152;DHT22;68;48.792;9.164;2023-10-31T04:57:54;11.80;91.10
152;DHT22;68;48.792;9.164;2023-10-31T05:00:21;11.80;91.70
152;DHT22;68;48.792;9.164;2023-10-31T05:02:48;11.70;92.20
152;DHT22;68;48.792;9.164;2023-10-31T05:05:15;11.60;91.70
152;DHT22;68;48.792;9.164;2023-10-31T05:07:41;11.60;91.20
152;DHT22;68;48.792;9.164;2023-10-31T05:10:09;11.60;91.00
152;DHT22;68;48.792;9.164;2023-10-31T05:12:35;11.60;91.90
152;DHT22;68;48.792;9.164;2023-10-31T05:15:05;11.50;91.80
152;DHT22;68;48.792;9.164;2023-10-31T05:17:32;11.50;91.10
152;DHT22;68;48.792;9.164;2023-10-31T05:19:59;11.50;91.40
152;DHT22;68;48.792;9.164;2023-10-31T05:22:25;11.50;91.20
152;DHT22;68;48.792;9.164;2023-10-31T05:24:52;11.50;91.40
152;DHT22;68;48.792;9.164;2023-10-31T05:27:19;11.50;92.10
152;DHT22;68;48.792;9.164;2023-10-31T05:29:46;11.40;91.60
152;DHT22;68;48.792;9.164;2023-10-31T05:32:16;11.40;91.20
152;DHT22;68;48.792;9.164;2023-10-31T05:34:42;11.40;91.40
152;DHT22;68;48.792;9.164;2023-10-31T05:37:09;11.40;91.80
152;DHT22;68;48.792;9.164;2023-10-31T05:39:36;11.40;91.40
152;DHT22;68;48.792;9.164;2023-10-31T05:42:03;11.40;91.20
152;DHT22;68;48.792;9.164;2023-10-31T05:44:30;11.40;91.00
152;DHT22;68;48.792;9.164;2023-10-31T05:46:57;11.40;91.30
152;DHT22;68;48.792;9.164;2023-10-31T05:49:25;11.40;92.50
152;DHT22;68;48.792;9.164;2023-10-31T05:51:52;11.20;92.50
152;DHT22;68;48.792;9.164;2023-10-31T05:54:19;11.20;91.90
152;DHT22;68;48.792;9.164;2023-10-31T05:56:46;11.20;91.50
152;DHT22;68;48.792;9.164;2023-10-31T05:59:13;11.20;91.40
152;DHT22;68;48.792;9.164;2023-10-31T06:01:40;11.30;91.50
152;DHT22;68;48.792;9.164;2023-10-31T06:04:07;11.30;91.60
152;DHT22;68;48.792;9.164;2023-10-31T06:06:37;11.20;91.90
152;DHT22;68;48.792;9.164;2023-10-31T06:09:04;11.20;91.70
152;DHT22;68;48.792;9.164;2023-10-31T06:11:31;11.20;91.50
152;DHT22;68;48.792;9.164;2023-10-31T06:13:58;11.20;91.70
152;DHT22;68;48.792;9.164;2023-10-31T06:16:25;11.20;91.40
152;DHT22;68;48.792;9.164;2023-10-31T06:18:52;11.20;91.10
152;DHT22;68;48.792;9.164;2023-10-31T06:21:21;11.20;91.10
152;DHT22;68;48.792;9.164;2023-10-31T06:23:50;11.20;91.30
152;DHT22;68;48.792;9.164;2023-10-31T06:26:16;11.30;91.10
152;DHT22;68;48.792;9.164;2023-10-31T06:28:43;11.20;91.80
152;DHT22;68;48.792;9.164;2023-10-31T06:31:10;11.20;91.90
152;DHT22;68;48.792;9.164;2023-10-31T06:33:37;11.20;91.40
152;DHT22;68;48.792;9.164;2023-10-31T06:36:04;11.30;91.20
152;DHT22;68;48.792;9.164;2023-10-31T06:38:32;11.30;91.30
152;DHT22;68;48.792;9.164;2023-10-31T06:41:00;11.30;91.50
152;DHT22;68;48.792;9.164;2023-10-31T06:43:26;11.30;91.70
152;DHT22;68;48.792;9.164;2023-10-31T06:45:54;11.30;91.80
152;DHT22;68;48.792;9.164;2023-10-31T06:48:22;11.30;91.90
152;DHT22;68;48.792;9.164;2023-10-31T06:50:49;11.30;91.70
152;DHT22;68;48.792;9.164;2023-10-31T06:53:15;11.30;91.60
152;DHT22;68;48.792;9.164;2023-10-31T06:55:42;11.30;91.50
152;DHT22;68;48.792;9.164;2023-10-31T06:58:10;11.40;91.40
152;DHT22;68;48.792;9.164;2023-10-31T07:00:39;11.40;91.50
152;DHT22;68;48.792;9.164;2023-10-31T07:03:05;11.40;91.30
152;DHT22;68;48.792;9.164;2023-10-31T07:05:34;11.40;91.40
152;DHT22;68;48.792;9.164;2023-10-31T07:08:01;11.50;91.40
152;DHT22;68;48.792;9.164;2023-10-31T07:10:28;11.50;91.40
152;DHT22;68;48.792;9.164;2023-10-31T07:12:55;11.50;91.50
152;DHT22;68;48.792;9.164;2023-10-31T07:15:26;11.50;91.40
152;DHT22;68;48.792;9.164;2023-10-31T07:17:56;11.60;91.80
152;DHT22;68;48.792;9.164;2023-10-31T07:20:22;11.50;91.80
152;DHT22;68;48.792;9.164;2023-10-31T07:22:49;11.50;91.50
152;DHT22;68;48.792;9.164;2023-10-31T07:25:15;11.60;91.40
152;DHT22;68;48.792;9.164;2023-10-31T07:27:42;11.60;91.70
152;DHT22;68;48.792;9.164;2023-10-31T07:30:09;11.60;91.90
152;DHT22;68;48.792;9.164;2023-10-31T07:32:37;11.60;91.80
152;DHT22;68;48.792;9.164;2023-10-31T07:35:05;11.60;91.60
152;DHT22;68;48.792;9.164;2023-10-31T07:37:32;11.70;91.40
152;DHT22;68;48.792;9.164;2023-10-31T07:39:59;11.70;91.70
152;DHT22;68;48.792;9.164;2023-10-31T07:42:25;11.70;91.90
152;DHT22;68;48.792;9.164;2023-10-31T07:44:52;11.80;91.80
152;DHT22;68;48.792;9.164;2023-10-31T07:47:19;11.80;91.80
152;DHT22;68;48.792;9.164;2023-10-31T07:49:47;11.90;92.00
152;DHT22;68;48.792;9.164;2023-10-31T07:52:14;11.90;91.90
152;DHT22;68;48.792;9.164;2023-10-31T07:54:41;11.90;92.20
152;DHT22;68;48.792;9.164;2023-10-31T07:57:08;12.00;92.30
152;DHT22;68;48.792;9.164;2023-10-31T07:59:35;12.00;92.60
152;DHT22;68;48.792;9.164;2023-10-31T08:02:02;12.00;92.80
152;DHT22;68;48.792;9.164;2023-10-31T08:04:29;12.00;92.80
152;DHT22;68;48.792;9.164;2023-10-31T08:06:57;12.00;92.70
152;DHT22;68;48.792;9.164;2023-10-31T08:09:24;12.10;92.60
152;DHT22;68;48.792;9.164;2023-10-31T08:11:51;12.10;92.50
152;DHT22;68;48.792;9.164;2023-10-31T08:14:18;12.10;92.40
152;DHT22;68;48.792;9.164;2023-10-31T08:16:44;12.10;92.60
152;DHT22;68;48.792;9.164;2023-10-31T08:19:11;12.20;92.70
152;DHT22;68;48.792;9.164;2023-10-31T08:21:38;12.20;92.70
152;DHT22;68;48.792;9.164;2023-10-31T08:24:07;12.30;92.90
152;DHT22;68;48.792;9.164;2023-10-31T08:26:34;12.30;93.30
152;DHT22;68;48.792;9.164;2023-10-31T08:29:01;12.40;93.60
152;DHT22;68;48.792;9.164;2023-10-31T08:31:28;12.50;93.70
152;DHT22;68;48.792;9.164;2023-10-31T08:33:55;12.50;94.00
152;DHT22;68;48.792;9.164;2023-10-31T08:36:22;12.60;94.40
152;DHT22;68;48.792;9.164;2023-10-31T08:38:48;12.60;94.70
152;DHT22;68;48.792;9.164;2023-10-31T08:41:17;12.70;94.80
152;DHT22;68;48.792;9.164;2023-10-31T08:43:45;12.70;95.10
152;DHT22;68;48.792;9.164;2023-10-31T08:46:12;12.60;95.40
152;DHT22;68;48.792;9.164;2023-10-31T08:48:39;12.60;95.50
152;DHT22;68;48.792;9.164;2023-10-31T08:51:06;12.70;95.40
152;DHT22;68;48.792;9.164;2023-10-31T08:53:33;12.70;95.40
152;DHT22;68;48.792;9.164;2023-10-31T08:55:59;12.80;95.40
152;DHT22;68;48.792;9.164;2023-10-31T08:58:28;12.80;95.50
152;DHT22;68;48.792;9.164;2023-10-31T09:00:55;12.90;95.60
152;DHT22;68;48.792;9.164;2023-10-31T09:03:21;13.00;95.60
152;DHT22;68;48.792;9.164;2023-10-31T09:05:48;12.90;95.50
152;DHT22;68;48.792;9.164;2023-10-31T09:08:15;13.00;95.60
152;DHT22;68;48.792;9.164;2023-10-31T09:10:43;13.00;95.60
152;DHT22;68;48.792;9.164;2023-10-31T09:13:12;13.00;95.60
152;DHT22;68;48.792;9.164;2023-10-31T09:15:40;13.10;95.50
152;DHT22;68;48.792;9.164;2023-10-31T09:18:07;13.10;95.30
152;DHT22;68;48.792;9.164;2023-10-31T09:20:34;13.20;95.10
152;DHT22;68;48.792;9.164;2023-10-31T09:23:01;13.20;94.90
152;DHT22;68;48.792;9.164;2023-10-31T09:25:27;13.30;94.40
152;DHT22;68;48.792;9.164;2023-10-31T09:27:55;13.30;94.40
152;DHT22;68;48.792;9.164;2023-10-31T09:30:24;13.40;94.30
152;DHT22;68;48.792;9.164;2023-10-31T09:32:52;13.30;93.80
152;DHT22;68;48.792;9.164;2023-10-31T09:35:19;13.40;93.80
152;DHT22;68;48.792;9.164;2023-10-31T09:37:45;13.40;93.40
152;DHT22;68;48.792;9.164;2023-10-31T09:40:14;13.30;93.10
152;DHT22;68;48.792;9.164;2023-10-31T09:42:41;13.30;93.20
152;DHT22;68;48.792;9.164;2023-10-31T09:45:08;13.30;93.00
152;DHT22;68;48.792;9.164;2023-10-31T09:47:35;13.30;93.10
152;DHT22;68;48.792;9.164;2023-10-31T09:50:05;13.30;93.20
152;DHT22;68;48.792;9.164;2023-10-31T09:52:32;13.30;93.20
152;DHT22;68;48.792;9.164;2023-10-31T09:55:01;13.40;93.40
152;DHT22;68;48.792;9.164;2023-10-31T09:57:28;13.50;93.60
152;DHT22;68;48.792;9.164;2023-10-31T09:59:55;13.70;93.60
152;DHT22;68;48.792;9.164;2023-10-31T10:02:22;13.80;93.40
152;DHT22;68;48.792;9.164;2023-10-31T10:04:49;13.70;92.30
152;DHT22;68;48.792;9.164;2023-10-31T10:07:18;13.80;91.80
152;DHT22;68;48.792;9.164;2023-10-31T10:09:45;13.80;92.00
152;DHT22;68;48.792;9.164;2023-10-31T10:12:13;13.70;92.50
152;DHT22;68;48.792;9.164;2023-10-31T10:14:40;13.60;92.50
152;DHT22;68;48.792;9.164;2023-10-31T10:17:14;13.50;92.80
152;DHT22;68;48.792;9.164;2023-10-31T10:19:41;13.50;92.70
152;DHT22;68;48.792;9.164;2023-10-31T10:22:09;13.50;92.80
152;DHT22;68;48.792;9.164;2023-10-31T10:24:40;13.50;92.50
152;DHT22;68;48.792;9.164;2023-10-31T10:27:08;13.60;92.40
152;DHT22;68;48.792;9.164;2023-10-31T10:29:35;13.70;92.30
152;DHT22;68;48.792;9.164;2023-10-31T10:32:05;13.80;92.50
152;DHT22;68;48.792;9.164;2023-10-31T10:34:33;13.80;92.20
152;DHT22;68;48.792;9.164;2023-10-31T10:37:01;13.80;92.20
152;DHT22;68;48.792;9.164;2023-10-31T10:39:33;13.80;91.80
152;DHT22;68;48.792;9.164;2023-10-31T10:42:01;13.60;91.80
152;DHT22;68;48.792;9.164;2023-10-31T10:44:34;13.60;91.80
152;DHT22;68;48.792;9.164;2023-10-31T10:47:03;13.50;92.10
152;DHT22;68;48.792;9.164;2023-10-31T10:49:33;13.40;92.70
152;DHT22;68;48.792;9.164;2023-10-31T10:52:08;13.50;93.50
152;DHT22;68;48.792;9.164;2023-10-31T10:54:44;13.50;94.00
152;DHT22;68;48.792;9.164;2023-10-31T11:00:01;13.70;94.10
152;DHT22;68;48.792;9.164;2023-10-31T11:02:30;13.80;94.10
152;DHT22;68;48.792;9.164;2023-10-31T11:04:58;13.90;94.00
152;DHT22;68;48.792;9.164;2023-10-31T11:07:27;14.00;93.70
152;DHT22;68;48.792;9.164;2023-10-31T11:09:57;14.00;93.50
152;DHT22;68;48.792;9.164;2023-10-31T11:12:29;14.00;92.90
152;DHT22;68;48.792;9.164;2023-10-31T11:14:57;14.00;92.40
152;DHT22;68;48.792;9.164;2023-10-31T11:17:26;14.00;92.50
152;DHT22;68;48.792;9.164;2023-10-31T11:19:55;14.00;93.10
152;DHT22;68;48.792;9.164;2023-10-31T11:22:22;14.00;93.10
152;DHT22;68;48.792;9.164;2023-10-31T11:24:49;14.00;92.90
152;DHT22;68;48.792;9.164;2023-10-31T11:27:17;14.10;92.80
152;DHT22;68;48.792;9.164;2023-10-31T11:29:47;14.10;92.90
152;DHT22;68;48.792;9.164;2023-10-31T11:32:14;14.20;93.00
152;DHT22;68;48.792;9.164;2023-10-31T11:34:42;14.20;93.00
152;DHT22;68;48.792;9.164;2023-10-31T11:37:25;14.20;93.00
152;DHT22;68;48.792;9.164;2023-10-31T11:40:15;14.20;93.00
152;DHT22;68;48.792;9.164;2023-10-31T11:42:43;14.10;92.90
152;DHT22;68;48.792;9.164;2023-10-31T11:45:11;14.20;92.90
152;DHT22;68;48.792;9.164;2023-10-31T11:47:47;14.20;93.20
152;DHT22;68;48.792;9.164;2023-10-31T11:50:14;14.20;93.70
152;DHT22;68;48.792;9.164;2023-10-31T11:52:41;14.20;94.00
152;DHT22;68;48.792;9.164;2023-10-31T11:55:09;14.20;94.20
152;DHT22;68;48.792;9.164;2023-10-31T11:57:37;14.20;94.30
152;DHT22;68;48.792;9.164;2023-10-31T12:00:05;14.20;94.00
152;DHT22;68;48.792;9.164;2023-10-31T12:02:34;14.20;94.00
152;DHT22;68;48.792;9.164;2023-10-31T12:05:08;14.20;94.20
152;DHT22;68;48.792;9.164;2023-10-31T12:07:42;14.20;94.20
152;DHT22;68;48.792;9.164;2023-10-31T12:10:09;14.20;94.20
152;DHT22;68;48.792;9.164;2023-10-31T12:12:35;14.20;94.20
152;DHT22;68;48.792;9.164;2023-10-31T12:15:06;14.20;94.00
152;DHT22;68;48.792;9.164;2023-10-31T12:17:34;14.20;93.40
152;DHT22;68;48.792;9.164;2023-10-31T12:20:05;14.20;93.30
152;DHT22;68;48.792;9.164;2023-10-31T12:22:32;14.30;93.40
152;DHT22;68;48.792;9.164;2023-10-31T12:25:02;14.30;93.60
152;DHT22;68;48.792;9.164;2023-10-31T12:27:42;14.30;93.60
152;DHT22;68;48.792;9.164;2023-10-31T12:30:10;14.20;93.10
152;DHT22;68;48.792;9.164;2023-10-31T12:32:39;14.30;93.00
152;DHT22;68;48.792;9.164;2023-10-31T12:35:08;14.40;93.00
152;DHT22;68;48.792;9.164;2023-10-31T12:37:36;14.40;92.80
152;DHT22;68;48.792;9.164;2023-10-31T12:40:04;14.40;92.00
152;DHT22;68;48.792;9.164;2023-10-31T12:42:31;14.50;91.60
152;DHT22;68;48.792;9.164;2023-10-31T12:44:59;14.50;91.40
152;DHT22;68;48.792;9.164;2023-10-31T12:47:25;14.50;91.20
152;DHT22;68;48.792;9.164;2023-10-31T12:50:07;14.50;91.50
152;DHT22;68;48.792;9.164;2023-10-31T12:52:50;14.50;91.70
152;DHT22;68;48.792;9.164;2023-10-31T12:55:19;14.50;91.80
152;DHT22;68;48.792;9.164;2023-10-31T12:57:47;14.50;91.60
152;DHT22;68;48.792;9.164;2023-10-31T13:00:15;14.50;91.50
152;DHT22;68;48.792;9.164;2023-10-31T13:02:44;14.50;91.40
152;DHT22;68;48.792;9.164;2023-10-31T13:05:14;14.50;91.20
152;DHT22;68;48.792;9.164;2023-10-31T13:07:47;14.50;91.30
152;DHT22;68;48.792;9.164;2023-10-31T13:10:16;14.50;91.30
152;DHT22;68;48.792;9.164;2023-10-31T13:12:44;14.60;91.00
152;DHT22;68;48.792;9.164;2023-10-31T13:15:12;14.60;90.80
152;DHT22;68;48.792;9.164;2023-10-31T13:17:39;14.60;90.70
152;DHT22;68;48.792;9.164;2023-10-31T13:20:08;14.60;90.80
152;DHT22;68;48.792;9.164;2023-10-31T13:22:37;14.70;91.10
152;DHT22;68;48.792;9.164;2023-10-31T13:25:04;14.70;91.00
152;DHT22;68;48.792;9.164;2023-10-31T13:27:33;14.70;91.20
152;DHT22;68;48.792;9.164;2023-10-31T13:30:00;14.60;91.10
152;DHT22;68;48.792;9.164;2023-10-31T13:32:27;14.60;90.90
152;DHT22;68;48.792;9.164;2023-10-31T13:34:54;14.60;91.10
152;DHT22;68;48.792;9.164;2023-10-31T13:37:21;14.60;91.50
152;DHT22;68;48.792;9.164;2023-10-31T13:39:49;14.60;91.60
152;DHT22;68;48.792;9.164;2023-10-31T13:42:16;14.60;90.90
152;DHT22;68;48.792;9.164;2023-10-31T13:44:43;14.70;90.60
152;DHT22;68;48.792;9.164;2023-10-31T13:47:10;14.70;90.40
152;DHT22;68;48.792;9.164;2023-10-31T13:49:37;14.70;90.30
152;DHT22;68;48.792;9.164;2023-10-31T13:52:04;14.70;90.70
152;DHT22;68;48.792;9.164;2023-10-31T13:54:31;14.70;90.60
152;DHT22;68;48.792;9.164;2023-10-31T13:56:59;14.70;90.80
152;DHT22;68;48.792;9.164;2023-10-31T13:59:26;14.70;91.20
152;DHT22;68;48.792;9.164;2023-10-31T14:01:53;14.70;91.70
152;DHT22;68;48.792;9.164;2023-10-31T14:04:20;14.70;91.50
152;DHT22;68;48.792;9.164;2023-10-31T14:06:47;14.70;91.00
152;DHT22;68;48.792;9.164;2023-10-31T14:09:14;14.70;90.30
152;DHT22;68;48.792;9.164;2023-10-31T14:11:41;14.70;90.00
152;DHT22;68;48.792;9.164;2023-10-31T14:14:10;14.70;90.30
152;DHT22;68;48.792;9.164;2023-10-31T14:16:39;14.70;90.90
152;DHT22;68;48.792;9.164;2023-10-31T14:19:06;14.80;91.70
152;DHT22;68;48.792;9.164;2023-10-31T14:21:33;14.80;91.90
152;DHT22;68;48.792;9.164;2023-10-31T14:24:00;14.80;92.10
152;DHT22;68;48.792;9.164;2023-10-31T14:26:29;14.80;92.40
152;DHT22;68;48.792;9.164;2023-10-31T14:28:58;14.80;92.40
152;DHT22;68;48.792;9.164;2023-10-31T14:31:26;14.80;92.10
152;DHT22;68;48.792;9.164;2023-10-31T14:33:53;14.80;92.10
152;DHT22;68;48.792;9.164;2023-10-31T14:36:20;14.80;92.10
152;DHT22;68;48.792;9.164;2023-10-31T14:38:47;14.80;92.40
152;DHT22;68;48.792;9.164;2023-10-31T14:41:14;14.70;91.10
152;DHT22;68;48.792;9.164;2023-10-31T14:43:40;14.60;91.70
152;DHT22;68;48.792;9.164;2023-10-31T14:46:07;14.60;92.80
152;DHT22;68;48.792;9.164;2023-10-31T14:48:35;14.60;93.70
152;DHT22;68;48.792;9.164;2023-10-31T14:51:03;14.50;93.80
152;DHT22;68;48.792;9.164;2023-10-31T14:53:29;14.40;94.10
152;DHT22;68;48.792;9.164;2023-10-31T14:55:56;14.40;94.60
152;DHT22;68;48.792;9.164;2023-10-31T14:58:23;14.40;94.90
152;DHT22;68;48.792;9.164;2023-10-31T15:00:50;14.30;95.00
152;DHT22;68;48.792;9.164;2023-10-31T15:03:17;14.10;95.20
152;DHT22;68;48.792;9.164;2023-10-31T15:05:46;14.10;95.30
152;DHT22;68;48.792;9.164;2023-10-31T15:08:12;14.00;95.30
152;DHT22;68;48.792;9.164;2023-10-31T15:10:39;14.00;95.20
152;DHT22;68;48.792;9.164;2023-10-31T15:13:06;13.90;95.20
152;DHT22;68;48.792;9.164;2023-10-31T15:15:33;13.90;95.10
152;DHT22;68;48.792;9.164;2023-10-31T15:17:59;13.80;95.00
152;DHT22;68;48.792;9.164;2023-10-31T15:20:27;13.80;94.80
152;DHT22;68;48.792;9.164;2023-10-31T15:22:55;13.80;94.60
152;DHT22;68;48.792;9.164;2023-10-31T15:25:22;13.80;94.50
152;DHT22;68;48.792;9.164;2023-10-31T15:27:49;13.80;94.50
152;DHT22;68;48.792;9.164;2023-10-31T15:30:15;13.80;94.40
152;DHT22;68;48.792;9.164;2023-10-31T15:32:43;13.80;94.30
152;DHT22;68;48.792;9.164;2023-10-31T15:35:10;13.70;94.30
152;DHT22;68;48.792;9.164;2023-10-31T15:37:36;13.70;94.30
152;DHT22;68;48.792;9.164;2023-10-31T15:40:07;13.70;93.90
152;DHT22;68;48.792;9.164;2023-10-31T15:42:34;13.60;93.60
152;DHT22;68;48.792;9.164;2023-10-31T15:45:00;13.60;93.60
152;DHT22;68;48.792;9.164;2023-10-31T15:47:28;13.60;93.40
152;DHT22;68;48.792;9.164;2023-10-31T15:49:55;13.60;93.40
152;DHT22;68;48.792;9.164;2023-10-31T15:52:22;13.60;93.40
152;DHT22;68;48.792;9.164;2023-10-31T15:54:49;13.60;93.30
152;DHT22;68;48.792;9.164;2023-10-31T15:57:17;13.50;93.40
152;DHT22;68;48.792;9.164;2023-10-31T15:59:46;13.50;93.20
152;DHT22;68;48.792;9.164;2023-10-31T16:02:13;13.50;93.10
152;DHT22;68;48.792;9.164;2023-10-31T16:04:42;13.50;93.00
152;DHT22;68;48.792;9.164;2023-10-31T16:07:09;13.40;93.00
152;DHT22;68;48.792;9.164;2023-10-31T16:09:36;13.40;92.90
152;DHT22;68;48.792;9.164;2023-10-31T16:12:03;13.40;92.70
152;DHT22;68;48.792;9.164;2023-10-31T16:14:32;13.40;92.70
152;DHT22;68;48.792;9.164;2023-10-31T16:16:59;13.40;92.90
152;DHT22;68;48.792;9.164;2023-10-31T16:19:26;13.40;93.00
152;DHT22;68;48.792;9.164;2023-10-31T16:21:53;13.40;93.10
152;DHT22;68;48.792;9.164;2023-10-31T16:24:19;13.40;93.20
152;DHT22;68;48.792;9.164;2023-10-31T16:26:46;13.40;93.20
152;DHT22;68;48.792;9.164;2023-10-31T16:29:13;13.40;93.30
152;DHT22;68;48.792;9.164;2023-10-31T16:31:42;13.30;93.30
152;DHT22;68;48.792;9.164;2023-10-31T16:34:10;13.30;93.20
152;DHT22;68;48.792;9.164;2023-10-31T16:36:37;13.30;93.20
152;DHT22;68;48.792;9.164;2023-10-31T16:39:04;13.30;93.20
152;DHT22;68;48.792;9.164;2023-10-31T16:41:32;13.20;93.10
152;DHT22;68;48.792;9.164;2023-10-31T16:43:58;13.20;93.00
152;DHT22;68;48.792;9.164;2023-10-31T16:46:25;13.20;93.10
152;DHT22;68;48.792;9.164;2023-10-31T16:48:53;13.20;93.10
152;DHT22;68;48.792;9.164;2023-10-31T16:51:20;13.10;93.10
152;DHT22;68;48.792;9.164;2023-10-31T16:53:48;13.10;93.10
152;DHT22;68;48.792;9.164;2023-10-31T16:56:15;13.10;93.30